createdAt,value
2023-04-18T00:00:15.363Z,7.88
2023-04-18T00:02:44.262Z,7.93
2023-04-18T00:05:18.409Z,8.00
2023-04-18T00:07:46.209Z,7.83
2023-04-18T00:10:13.929Z,7.93
2023-04-18T00:12:41.131Z,7.92
2023-04-18T00:15:09.546Z,7.94
2023-04-18T00:17:38.590Z,7.91
2023-04-18T00:20:10.105Z,7.91
2023-04-18T00:22:43.020Z,7.80
2023-04-18T00:25:11.618Z,7.77
2023-04-18T00:27:39.177Z,7.81
2023-04-18T00:30:06.872Z,7.84
2023-04-18T00:32:37.079Z,7.76
2023-04-18T00:35:05.025Z,7.76
2023-04-18T00:37:32.503Z,7.74
2023-04-18T00:39:59.364Z,7.72
2023-04-18T00:42:28.137Z,7.79
2023-04-18T00:44:55.404Z,7.76
2023-04-18T00:47:22.403Z,7.78
2023-04-18T00:49:49.890Z,7.80
2023-04-18T00:52:19.190Z,7.73
2023-04-18T00:54:49.694Z,7.70
2023-04-18T00:57:16.787Z,7.69
2023-04-18T00:59:44.069Z,7.72
2023-04-18T01:02:11.519Z,7.64
2023-04-18T01:04:43.643Z,7.66
2023-04-18T01:07:11.857Z,7.61
2023-04-18T01:09:39.701Z,7.58
2023-04-18T01:12:09.029Z,7.54
2023-04-18T01:14:36.248Z,7.54
2023-04-18T01:17:03.778Z,7.47
2023-04-18T01:19:30.761Z,7.45
2023-04-18T01:21:57.687Z,7.49
2023-04-18T01:24:26.818Z,7.40
2023-04-18T01:26:53.992Z,7.36
2023-04-18T01:29:21.332Z,7.35
2023-04-18T01:31:50.297Z,7.44
2023-04-18T01:34:20.817Z,7.35
2023-04-18T01:36:48.430Z,7.29
2023-04-18T01:39:15.818Z,7.40
2023-04-18T01:41:43.126Z,7.35
2023-04-18T01:44:10.506Z,7.27
2023-04-18T01:46:38.072Z,7.27
2023-04-18T01:49:06.300Z,7.25
2023-04-18T01:51:33.528Z,7.25
2023-04-18T01:54:01.013Z,7.32
2023-04-18T01:56:28.420Z,7.16
2023-04-18T01:58:59.122Z,7.15
2023-04-18T02:01:26.527Z,7.14
2023-04-18T02:03:54.271Z,7.08
2023-04-18T02:06:22.483Z,7.07
2023-04-18T02:08:50.590Z,7.02
2023-04-18T02:11:17.480Z,7.00
2023-04-18T02:13:44.698Z,6.94
2023-04-18T02:16:13.664Z,6.97
2023-04-18T02:18:43.658Z,6.98
2023-04-18T02:21:11.347Z,6.95
2023-04-18T02:23:38.803Z,6.95
2023-04-18T02:26:06.089Z,6.95
2023-04-18T02:28:33.224Z,6.97
2023-04-18T02:31:03.539Z,6.85
2023-04-18T02:33:30.903Z,6.86
2023-04-18T02:35:58.700Z,6.92
2023-04-18T02:38:26.211Z,6.89
2023-04-18T02:40:53.497Z,6.88
2023-04-18T02:43:21.223Z,6.90
2023-04-18T02:45:48.560Z,6.86
2023-04-18T02:48:15.718Z,6.88
2023-04-18T02:50:45.205Z,6.86
2023-04-18T02:53:12.877Z,6.81
2023-04-18T02:55:51.702Z,6.77
2023-04-18T02:58:20.424Z,6.79
2023-04-18T03:00:54.036Z,6.73
2023-04-18T03:03:41.787Z,6.75
2023-04-18T03:06:22.920Z,6.75
2023-04-18T03:08:50.579Z,6.80
2023-04-18T03:11:17.598Z,6.74
2023-04-18T03:13:45.944Z,6.92
2023-04-18T03:16:14.405Z,6.89
2023-04-18T03:18:42.459Z,6.70
2023-04-18T03:21:09.760Z,6.86
2023-04-18T03:23:40.156Z,6.84
2023-04-18T03:26:08.356Z,6.90
2023-04-18T03:28:38.125Z,6.96
2023-04-18T03:31:05.473Z,6.82
2023-04-18T03:33:35.235Z,6.91
2023-04-18T03:36:09.327Z,6.98
2023-04-18T03:38:40.729Z,6.83
2023-04-18T03:41:09.355Z,6.89
2023-04-18T03:43:38.283Z,6.90
2023-04-18T03:46:06.277Z,6.93
2023-04-18T03:48:37.397Z,6.85
2023-04-18T03:51:09.301Z,6.91
2023-04-18T03:53:37.149Z,7.04
2023-04-18T03:56:04.526Z,7.08
2023-04-18T03:58:52.565Z,7.18
2023-04-18T04:01:21.807Z,7.38
2023-04-18T04:03:50.646Z,7.40
2023-04-18T04:06:17.986Z,7.42
2023-04-18T04:08:45.714Z,7.59
2023-04-18T04:11:14.602Z,7.61
2023-04-18T04:13:42.840Z,7.71
2023-04-18T04:16:13.258Z,7.84
2023-04-18T04:18:40.797Z,8.01
2023-04-18T04:21:07.959Z,8.15
2023-04-18T04:23:49.511Z,8.25
2023-04-18T04:26:47.118Z,8.33
2023-04-18T04:29:17.981Z,8.34
2023-04-18T04:31:47.337Z,8.45
2023-04-18T04:34:20.772Z,8.67
2023-04-18T04:36:48.975Z,8.91
2023-04-18T04:39:17.745Z,8.95
2023-04-18T04:42:04.785Z,9.17
2023-04-18T04:44:44.478Z,9.15
2023-04-18T04:47:12.455Z,9.14
2023-04-18T04:49:40.385Z,9.21
2023-04-18T04:52:07.598Z,9.31
2023-04-18T04:54:35.764Z,9.25
2023-04-18T04:57:04.706Z,9.21
2023-04-18T04:59:31.620Z,9.19
2023-04-18T05:01:58.646Z,9.17
2023-04-18T05:04:26.051Z,9.31
2023-04-18T05:06:53.596Z,9.41
2023-04-18T05:09:21.026Z,9.36
2023-04-18T05:11:49.851Z,9.38
2023-04-18T05:14:17.779Z,9.53
2023-04-18T05:16:44.670Z,9.74
2023-04-18T05:19:12.152Z,9.75
2023-04-18T05:21:39.816Z,9.93
2023-04-18T05:24:07.277Z,10.21
2023-04-18T05:26:34.761Z,10.30
2023-04-18T05:29:02.013Z,10.48
2023-04-18T05:31:29.140Z,10.73
2023-04-18T05:33:56.583Z,11.03
2023-04-18T05:36:24.051Z,11.03
2023-04-18T05:38:52.189Z,10.79
2023-04-18T05:41:19.441Z,10.82
2023-04-18T05:43:54.245Z,10.49
2023-04-18T05:46:29.548Z,10.78
2023-04-18T05:48:57.303Z,10.54
2023-04-18T05:51:24.947Z,10.25
2023-04-18T05:53:52.232Z,10.41
2023-04-18T05:56:19.570Z,10.55
2023-04-18T05:58:48.145Z,10.63
2023-04-18T06:01:16.434Z,10.62
2023-04-18T06:03:43.842Z,11.04
2023-04-18T06:06:12.156Z,11.60
2023-04-18T06:08:40.035Z,12.23
2023-04-18T06:11:07.222Z,12.53
2023-04-18T06:13:34.129Z,12.87
2023-04-18T06:16:01.763Z,13.16
2023-04-18T06:18:29.245Z,13.54
2023-04-18T06:20:56.476Z,14.08
2023-04-18T06:23:23.703Z,14.41
2023-04-18T06:25:50.959Z,14.51
2023-04-18T06:28:18.253Z,14.87
2023-04-18T06:30:46.145Z,15.31
2023-04-18T06:33:13.961Z,15.58
2023-04-18T06:35:42.330Z,15.38
2023-04-18T06:38:12.315Z,15.41
2023-04-18T06:40:39.979Z,15.78
2023-04-18T06:43:07.870Z,15.68
2023-04-18T06:45:36.641Z,16.03
2023-04-18T06:48:04.482Z,16.32
2023-04-18T06:50:32.497Z,16.66
2023-04-18T06:53:00.428Z,16.98
2023-04-18T06:55:28.865Z,17.10
2023-04-18T06:57:57.249Z,17.28
2023-04-18T07:00:31.135Z,17.43
2023-04-18T07:02:58.955Z,17.51
2023-04-18T07:05:26.546Z,17.59
2023-04-18T07:07:53.634Z,17.65
2023-04-18T07:10:21.858Z,17.70
2023-04-18T07:12:49.811Z,17.43
2023-04-18T07:15:21.236Z,17.27
2023-04-18T07:17:48.848Z,17.27
2023-04-18T07:20:16.891Z,16.74
2023-04-18T07:22:46.160Z,16.45
2023-04-18T07:25:13.922Z,17.00
2023-04-18T07:27:41.350Z,17.37
2023-04-18T07:30:12.288Z,17.53
2023-04-18T07:32:39.583Z,17.79
2023-04-18T07:35:08.351Z,17.75
2023-04-18T07:37:36.466Z,17.84
2023-04-18T07:40:05.431Z,17.59
2023-04-18T07:42:32.929Z,17.93
2023-04-18T07:45:00.300Z,18.06
2023-04-18T07:47:30.828Z,18.41
2023-04-18T07:49:59.390Z,18.87
2023-04-18T07:52:26.983Z,19.27
2023-04-18T07:54:54.300Z,19.37
2023-04-18T07:57:21.890Z,19.33
2023-04-18T07:59:49.691Z,19.31
2023-04-18T08:02:16.772Z,19.93
2023-04-18T08:04:44.427Z,20.62
2023-04-18T08:07:11.426Z,20.74
2023-04-18T08:09:38.817Z,21.44
2023-04-18T08:12:06.299Z,22.01
2023-04-18T08:14:33.781Z,22.66
2023-04-18T08:17:00.683Z,22.09
2023-04-18T08:19:28.515Z,22.61
2023-04-18T08:22:09.292Z,21.78
2023-04-18T08:24:39.192Z,22.14
2023-04-18T08:27:06.587Z,21.91
2023-04-18T08:29:34.169Z,22.56
2023-04-18T08:32:01.494Z,22.69
2023-04-18T08:34:29.746Z,22.24
2023-04-18T08:36:57.257Z,23.21
2023-04-18T08:39:25.411Z,23.21
2023-04-18T08:41:59.768Z,23.16
2023-04-18T08:44:29.836Z,23.57
2023-04-18T08:46:57.835Z,24.62
2023-04-18T08:49:25.401Z,24.67
2023-04-18T08:51:53.358Z,25.27
2023-04-18T08:54:22.817Z,24.97
2023-04-18T08:57:16.845Z,25.73
2023-04-18T08:59:48.253Z,26.75
2023-04-18T09:02:16.941Z,25.74
2023-04-18T09:04:49.533Z,25.52
2023-04-18T09:07:18.650Z,25.00
2023-04-18T09:09:51.005Z,24.65
2023-04-18T09:12:19.759Z,24.72
2023-04-18T09:14:47.858Z,23.69
2023-04-18T09:17:22.096Z,23.68
2023-04-18T09:19:50.550Z,24.08
2023-04-18T09:22:18.494Z,23.03
2023-04-18T09:24:56.033Z,22.44
2023-04-18T09:27:24.515Z,21.70
2023-04-18T09:29:56.531Z,20.69
2023-04-18T09:32:29.555Z,20.78
2023-04-18T09:35:05.666Z,21.04
2023-04-18T09:37:33.341Z,20.86
2023-04-18T09:40:00.895Z,20.28
2023-04-18T09:42:37.636Z,19.96
2023-04-18T09:45:07.449Z,19.35
2023-04-18T09:47:36.784Z,18.59
2023-04-18T09:50:08.734Z,18.29
2023-04-18T09:52:38.891Z,17.83
2023-04-18T09:55:09.080Z,17.96
2023-04-18T09:57:39.340Z,18.41
2023-04-18T10:00:23.518Z,18.26
2023-04-18T10:03:10.088Z,18.17
2023-04-18T10:05:40.315Z,18.54
2023-04-18T10:08:09.800Z,17.86
2023-04-18T10:10:40.904Z,18.22
2023-04-18T10:13:11.589Z,17.82
2023-04-18T10:15:40.342Z,18.05
2023-04-18T10:18:19.445Z,18.38
2023-04-18T10:20:47.290Z,18.13
2023-04-18T10:23:35.104Z,18.39
2023-04-18T10:26:03.550Z,18.78
2023-04-18T10:28:49.797Z,17.48
2023-04-18T10:31:17.184Z,17.96
2023-04-18T10:34:03.985Z,18.02
2023-04-18T10:36:33.576Z,18.01
2023-04-18T10:39:03.290Z,17.90
2023-04-18T10:41:32.168Z,17.26
2023-04-18T10:44:14.896Z,16.92
2023-04-18T10:47:04.017Z,16.78
2023-04-18T10:49:33.677Z,17.02
2023-04-18T10:52:02.476Z,17.33
2023-04-18T10:54:30.894Z,17.14
2023-04-18T10:57:00.427Z,16.46
2023-04-18T10:59:29.694Z,16.96
2023-04-18T11:02:04.884Z,17.36
2023-04-18T11:04:32.007Z,17.01
2023-04-18T11:07:00.298Z,16.47
2023-04-18T11:09:27.356Z,16.70
2023-04-18T11:12:12.203Z,16.75
2023-04-18T11:14:40.726Z,16.10
2023-04-18T11:17:21.186Z,15.77
2023-04-18T11:19:49.099Z,15.61
2023-04-18T11:22:18.206Z,15.60
2023-04-18T11:24:46.247Z,15.74
2023-04-18T11:27:14.742Z,15.75
2023-04-18T11:29:42.232Z,15.65
2023-04-18T11:32:10.023Z,15.52
2023-04-18T11:34:37.735Z,15.23
2023-04-18T11:37:08.793Z,15.23
2023-04-18T11:39:42.662Z,14.91
2023-04-18T11:42:10.353Z,15.19
2023-04-18T11:44:40.084Z,15.11
2023-04-18T11:47:24.310Z,15.23
2023-04-18T11:50:00.564Z,15.26
2023-04-18T11:52:29.527Z,15.21
2023-04-18T11:55:10.604Z,15.29
2023-04-18T11:57:38.178Z,15.34
2023-04-18T12:00:07.826Z,15.39
2023-04-18T12:02:43.146Z,15.61
2023-04-18T12:05:12.551Z,15.84
2023-04-18T12:07:42.484Z,15.92
2023-04-18T12:10:23.768Z,15.77
2023-04-18T12:12:53.081Z,15.15
2023-04-18T12:15:23.852Z,14.46
2023-04-18T12:17:53.876Z,13.98
2023-04-18T12:20:25.086Z,13.66
2023-04-18T12:22:54.538Z,13.21
2023-04-18T12:25:26.963Z,12.91
2023-04-18T12:28:00.618Z,12.66
2023-04-18T12:30:36.853Z,12.27
2023-04-18T12:33:05.112Z,12.05
2023-04-18T12:35:32.392Z,11.90
2023-04-18T12:38:02.061Z,11.74
2023-04-18T12:40:30.255Z,11.60
2023-04-18T12:42:57.867Z,11.55
2023-04-18T12:45:25.585Z,11.45
2023-04-18T12:47:53.795Z,11.43
2023-04-18T12:50:23.260Z,11.45
2023-04-18T12:52:52.799Z,11.51
2023-04-18T12:55:20.199Z,11.53
2023-04-18T12:57:47.641Z,11.61
2023-04-18T13:00:14.915Z,11.75
2023-04-18T13:02:44.442Z,11.84
2023-04-18T13:05:14.994Z,11.95
2023-04-18T13:07:42.910Z,12.07
2023-04-18T13:10:15.250Z,12.21
2023-04-18T13:12:42.263Z,12.27
2023-04-18T13:15:10.296Z,12.36
2023-04-18T13:17:39.569Z,12.34
2023-04-18T13:20:10.815Z,12.27
2023-04-18T13:22:38.200Z,12.15
2023-04-18T13:25:07.505Z,12.02
2023-04-18T13:27:35.469Z,11.92
2023-04-18T13:30:03.750Z,11.75
2023-04-18T13:32:31.140Z,11.66
2023-04-18T13:34:58.229Z,11.62
2023-04-18T13:37:26.539Z,11.58
2023-04-18T13:39:53.935Z,11.52
2023-04-18T13:42:21.199Z,11.45
2023-04-18T13:44:48.282Z,11.38
2023-04-18T13:47:16.923Z,11.20
2023-04-18T13:49:43.732Z,11.10
2023-04-18T13:52:10.772Z,11.00
2023-04-18T13:54:38.923Z,10.91
2023-04-18T13:57:11.688Z,10.77
2023-04-18T13:59:42.087Z,10.67
2023-04-18T14:02:10.589Z,10.55
2023-04-18T14:04:38.339Z,10.50
2023-04-18T14:07:06.482Z,10.43
2023-04-18T14:09:33.868Z,10.37
2023-04-18T14:12:02.432Z,10.31
2023-04-18T14:14:30.122Z,10.28
2023-04-18T14:16:57.510Z,10.24
2023-04-18T14:19:25.153Z,10.22
2023-04-18T14:21:52.518Z,10.20
2023-04-18T14:24:19.724Z,10.21
2023-04-18T14:26:46.756Z,10.22
2023-04-18T14:29:14.576Z,10.22
2023-04-18T14:31:42.249Z,10.14
2023-04-18T14:34:10.038Z,10.06
2023-04-18T14:36:37.442Z,10.05
2023-04-18T14:39:05.813Z,9.97
2023-04-18T14:41:33.437Z,9.82
2023-04-18T14:44:01.041Z,9.68
2023-04-18T14:46:29.590Z,9.72
2023-04-18T14:48:57.742Z,9.72
2023-04-18T14:51:24.579Z,9.77
2023-04-18T14:53:51.903Z,9.80
2023-04-18T14:56:21.644Z,9.84
2023-04-18T14:58:49.229Z,9.83
2023-04-18T15:01:19.709Z,9.86
2023-04-18T15:03:47.162Z,9.55
2023-04-18T15:06:14.560Z,9.55
2023-04-18T15:08:44.329Z,9.33
2023-04-18T15:11:11.607Z,9.33
2023-04-18T15:13:40.093Z,9.17
2023-04-18T15:16:07.487Z,9.29
2023-04-18T15:18:35.200Z,9.39
2023-04-18T15:21:02.754Z,9.40
2023-04-18T15:23:29.792Z,9.41
2023-04-18T15:25:56.912Z,9.44
2023-04-18T15:28:24.270Z,9.45
2023-04-18T15:30:51.738Z,9.24
2023-04-18T15:33:20.799Z,9.39
2023-04-18T15:35:48.566Z,9.49
2023-04-18T15:38:16.142Z,9.34
2023-04-18T15:40:46.258Z,9.42
2023-04-18T15:43:16.339Z,9.50
2023-04-18T15:45:44.963Z,9.58
2023-04-18T15:48:14.148Z,9.68
2023-04-18T15:50:42.655Z,9.59
2023-04-18T15:53:09.975Z,9.62
2023-04-18T15:55:37.491Z,9.65
2023-04-18T15:58:04.816Z,9.63
2023-04-18T16:00:32.568Z,9.57
2023-04-18T16:03:00.064Z,9.53
2023-04-18T16:05:27.344Z,9.50
2023-04-18T16:07:56.479Z,9.72
2023-04-18T16:10:24.145Z,9.64
2023-04-18T16:12:51.031Z,9.60
2023-04-18T16:15:18.348Z,9.70
2023-04-18T16:17:45.777Z,9.70
2023-04-18T16:20:13.328Z,9.69
2023-04-18T16:22:40.745Z,9.70
2023-04-18T16:25:08.774Z,9.74
2023-04-18T16:27:36.449Z,9.77
2023-04-18T16:30:04.337Z,9.78
2023-04-18T16:32:31.845Z,9.77
2023-04-18T16:34:59.013Z,9.77
2023-04-18T16:37:26.106Z,9.76
2023-04-18T16:39:53.280Z,9.74
2023-04-18T16:42:20.876Z,9.73
2023-04-18T16:44:48.612Z,9.74
2023-04-18T16:47:17.480Z,9.68
2023-04-18T16:49:47.259Z,9.65
2023-04-18T16:52:15.340Z,9.61
2023-04-18T16:54:42.644Z,9.61
2023-04-18T16:57:09.679Z,9.59
2023-04-18T16:59:36.547Z,9.46
2023-04-18T17:02:03.820Z,9.45
2023-04-18T17:04:31.384Z,9.10
2023-04-18T17:06:58.837Z,9.09
2023-04-18T17:09:26.546Z,9.00
2023-04-18T17:11:53.702Z,8.98
2023-04-18T17:14:21.210Z,9.10
2023-04-18T17:16:51.415Z,8.90
2023-04-18T17:19:20.744Z,8.85
2023-04-18T17:21:49.350Z,8.87
2023-04-18T17:24:18.928Z,8.93
2023-04-18T17:26:46.368Z,8.86
2023-04-18T17:29:13.812Z,8.77
2023-04-18T17:31:41.414Z,8.85
2023-04-18T17:34:08.400Z,8.89
2023-04-18T17:36:35.875Z,8.83
2023-04-18T17:39:06.766Z,8.87
2023-04-18T17:41:39.057Z,8.92
2023-04-18T17:44:08.281Z,9.01
2023-04-18T17:46:35.484Z,8.87
2023-04-18T17:49:02.786Z,8.88
2023-04-18T17:51:30.015Z,8.90
2023-04-18T17:53:57.291Z,8.87
2023-04-18T17:56:24.484Z,8.82
2023-04-18T17:58:51.740Z,8.85
2023-04-18T18:01:21.347Z,8.77
2023-04-18T18:03:49.170Z,8.76
2023-04-18T18:06:16.592Z,8.78
2023-04-18T18:08:43.812Z,8.91
2023-04-18T18:11:10.838Z,8.76
2023-04-18T18:13:39.164Z,8.75
2023-04-18T18:16:07.312Z,8.79
2023-04-18T18:18:35.012Z,8.56
2023-04-18T18:21:02.215Z,8.66
2023-04-18T18:23:29.078Z,8.62
2023-04-18T18:25:55.948Z,8.63
2023-04-18T18:28:22.835Z,8.68
2023-04-18T18:30:50.193Z,8.77
2023-04-18T18:33:17.249Z,8.80
2023-04-18T18:35:44.123Z,8.74
2023-04-18T18:38:11.062Z,8.78
2023-04-18T18:40:38.345Z,8.85
2023-04-18T18:43:05.340Z,8.78
2023-04-18T18:45:32.539Z,8.73
2023-04-18T18:48:00.118Z,8.75
2023-04-18T18:50:27.025Z,8.81
2023-04-18T18:52:54.363Z,8.78
2023-04-18T18:55:21.885Z,8.82
2023-04-18T18:57:48.956Z,8.86
2023-04-18T19:00:16.468Z,8.87
2023-04-18T19:02:43.492Z,8.86
2023-04-18T19:05:13.084Z,8.86
2023-04-18T19:07:43.097Z,8.94
2023-04-18T19:10:10.815Z,8.90
2023-04-18T19:12:38.566Z,8.94
2023-04-18T19:15:06.663Z,8.92
2023-04-18T19:17:34.229Z,9.02
2023-04-18T19:20:01.751Z,8.99
2023-04-18T19:22:29.953Z,8.96
2023-04-18T19:24:57.891Z,8.86
2023-04-18T19:27:25.162Z,8.90
2023-04-18T19:29:52.454Z,8.98
2023-04-18T19:32:19.563Z,8.99
2023-04-18T19:34:48.677Z,8.94
2023-04-18T19:37:15.436Z,8.95
2023-04-18T19:39:42.869Z,8.97
2023-04-18T19:42:10.741Z,8.93
2023-04-18T19:44:40.439Z,8.99
2023-04-18T19:47:08.137Z,9.01
2023-04-18T19:49:35.372Z,8.97
2023-04-18T19:52:02.454Z,8.96
2023-04-18T19:54:33.532Z,8.93
2023-04-18T19:57:01.656Z,8.90
2023-04-18T19:59:28.698Z,8.86
2023-04-18T20:01:56.738Z,8.85
2023-04-18T20:04:26.054Z,8.82
2023-04-18T20:06:56.648Z,8.80
2023-04-18T20:09:23.488Z,8.75
2023-04-18T20:11:50.896Z,8.74
2023-04-18T20:14:18.206Z,8.72
2023-04-18T20:16:46.910Z,8.66
2023-04-18T20:19:14.880Z,8.61
2023-04-18T20:21:42.324Z,8.53
2023-04-18T20:24:10.329Z,8.46
2023-04-18T20:26:39.718Z,8.39
2023-04-18T20:29:06.969Z,8.30
2023-04-18T20:31:35.286Z,8.23
2023-04-18T20:34:02.839Z,8.15
2023-04-18T20:36:31.243Z,8.06
2023-04-18T20:38:57.992Z,7.96
2023-04-18T20:41:27.047Z,7.91
2023-04-18T20:43:54.240Z,7.82
2023-04-18T20:46:21.958Z,7.72
2023-04-18T20:48:49.515Z,7.62
2023-04-18T20:51:16.804Z,7.51
2023-04-18T20:53:44.313Z,7.38
2023-04-18T20:56:11.502Z,7.22
2023-04-18T20:58:38.412Z,7.09
2023-04-18T21:01:05.729Z,6.97
2023-04-18T21:03:33.044Z,6.84
2023-04-18T21:06:00.545Z,6.70
2023-04-18T21:08:27.532Z,6.60
2023-04-18T21:10:54.303Z,6.48
2023-04-18T21:13:21.257Z,6.39
2023-04-18T21:15:51.023Z,6.38
2023-04-18T21:18:19.334Z,6.41
2023-04-18T21:20:46.079Z,6.41
2023-04-18T21:23:13.264Z,6.31
2023-04-18T21:25:41.019Z,6.39
2023-04-18T21:28:08.911Z,6.49
2023-04-18T21:30:36.552Z,6.67
2023-04-18T21:33:03.987Z,6.68
2023-04-18T21:35:31.503Z,6.68
2023-04-18T21:37:58.684Z,6.68
2023-04-18T21:40:27.020Z,6.59
2023-04-18T21:42:54.360Z,6.54
2023-04-18T21:45:21.693Z,6.63
2023-04-18T21:47:48.866Z,6.70
2023-04-18T21:50:16.170Z,6.74
2023-04-18T21:52:43.325Z,6.71
2023-04-18T21:55:10.608Z,6.72
2023-04-18T21:57:38.145Z,6.83
2023-04-18T22:00:08.458Z,6.85
2023-04-18T22:02:37.216Z,6.77
2023-04-18T22:05:04.473Z,6.66
2023-04-18T22:07:32.465Z,6.63
2023-04-18T22:10:00.163Z,6.53
2023-04-18T22:12:27.167Z,6.49
2023-04-18T22:14:54.979Z,6.39
2023-04-18T22:17:22.687Z,6.30
2023-04-18T22:19:50.781Z,6.27
2023-04-18T22:22:19.275Z,6.23
2023-04-18T22:24:47.699Z,6.23
2023-04-18T22:27:15.027Z,6.29
2023-04-18T22:29:42.262Z,6.31
2023-04-18T22:32:09.459Z,6.37
2023-04-18T22:34:36.750Z,6.47
2023-04-18T22:37:03.777Z,6.60
2023-04-18T22:39:31.580Z,6.73
2023-04-18T22:41:58.980Z,6.84
2023-04-18T22:44:26.554Z,6.93
2023-04-18T22:46:56.619Z,7.02
2023-04-18T22:49:23.834Z,7.08
2023-04-18T22:51:54.645Z,7.25
2023-04-18T22:54:22.029Z,7.37
2023-04-18T22:56:50.824Z,7.46
2023-04-18T22:59:18.055Z,7.50
2023-04-18T23:01:45.432Z,7.56
2023-04-18T23:04:12.814Z,7.57
2023-04-18T23:06:39.882Z,7.56
2023-04-18T23:09:09.430Z,7.57
2023-04-18T23:11:36.517Z,7.57
2023-04-18T23:14:03.404Z,7.52
2023-04-18T23:16:30.529Z,7.43
2023-04-18T23:18:57.977Z,7.44
2023-04-18T23:21:25.011Z,7.47
2023-04-18T23:23:52.163Z,7.44
2023-04-18T23:26:19.444Z,7.50
2023-04-18T23:28:46.678Z,7.62
2023-04-18T23:31:13.707Z,7.76
2023-04-18T23:33:41.213Z,7.90
2023-04-18T23:36:08.679Z,7.97
2023-04-18T23:38:37.351Z,8.14
2023-04-18T23:41:04.469Z,8.25
2023-04-18T23:43:31.645Z,8.33
2023-04-18T23:45:58.903Z,8.41
2023-04-18T23:48:26.094Z,8.45
2023-04-18T23:50:54.060Z,8.45
2023-04-18T23:53:22.658Z,8.37
2023-04-18T23:55:51.090Z,8.38
2023-04-18T23:58:20.302Z,8.39
